createdAt,value
2023-01-13T00:00:24.321Z,99847.69
2023-01-13T00:02:52.145Z,99827.22
2023-01-13T00:05:20.228Z,99848.25
2023-01-13T00:07:49.222Z,99837.22
2023-01-13T00:10:17.692Z,99851.53
2023-01-13T00:12:45.513Z,99858.13
2023-01-13T00:15:13.398Z,99852.38
2023-01-13T00:17:42.633Z,99857.53
2023-01-13T00:20:11.757Z,99852.66
2023-01-13T00:22:39.584Z,99850.25
2023-01-13T00:25:08.121Z,99846.06
2023-01-13T00:27:35.936Z,99849.47
2023-01-13T00:30:03.816Z,99857.06
2023-01-13T00:32:31.792Z,99857.06
2023-01-13T00:35:00.986Z,99847.22
2023-01-13T00:37:28.800Z,99849.75
2023-01-13T00:39:57.791Z,99840.84
2023-01-13T00:42:43.214Z,99848.28
2023-01-13T00:45:11.799Z,99842.94
2023-01-13T00:47:39.628Z,99837.63
2023-01-13T00:50:10.292Z,99837.75
2023-01-13T00:52:38.312Z,99843.09
2023-01-13T00:55:07.532Z,99843.16
2023-01-13T00:57:35.571Z,99849.06
2023-01-13T01:00:04.636Z,99844.16
2023-01-13T01:02:32.495Z,99850.53
2023-01-13T01:05:00.960Z,99847.22
2023-01-13T01:07:30.110Z,99850.53
2023-01-13T01:09:57.918Z,99853.88
2023-01-13T01:12:25.851Z,99845.72
2023-01-13T01:14:53.675Z,99842.53
2023-01-13T01:17:21.497Z,99847.59
2023-01-13T01:19:49.272Z,99838.50
2023-01-13T01:22:17.114Z,99826.78
2023-01-13T01:24:48.211Z,99831.16
2023-01-13T01:27:16.022Z,99829.28
2023-01-13T01:29:43.853Z,99821.44
2023-01-13T01:32:11.644Z,99813.84
2023-01-13T01:34:40.019Z,99806.34
2023-01-13T01:37:07.846Z,99806.25
2023-01-13T01:39:35.842Z,99807.97
2023-01-13T01:42:22.590Z,99814.78
2023-01-13T01:45:03.798Z,99817.47
2023-01-13T01:47:33.352Z,99816.63
2023-01-13T01:50:04.178Z,99808.19
2023-01-13T01:52:35.461Z,99809.03
2023-01-13T01:55:07.461Z,99818.13
2023-01-13T01:57:43.666Z,99809.97
2023-01-13T02:00:12.762Z,99806.84
2023-01-13T02:02:43.924Z,99802.94
2023-01-13T02:05:12.068Z,99804.56
2023-01-13T02:07:42.095Z,99799.56
2023-01-13T02:10:12.718Z,99802.06
2023-01-13T02:12:45.211Z,99788.03
2023-01-13T02:15:15.707Z,99783.03
2023-01-13T02:18:04.450Z,99784.00
2023-01-13T02:20:53.318Z,99770.78
2023-01-13T02:24:12.641Z,99761.78
2023-01-13T02:27:10.852Z,99768.16
2023-01-13T02:30:18.780Z,99752.94
2023-01-13T02:32:56.930Z,99752.84
2023-01-13T02:35:31.189Z,99760.47
2023-01-13T02:38:01.700Z,99758.81
2023-01-13T02:40:36.993Z,99761.38
2023-01-13T02:43:29.289Z,99755.63
2023-01-13T02:46:06.190Z,99750.53
2023-01-13T02:48:36.472Z,99746.19
2023-01-13T02:51:08.261Z,99742.84
2023-01-13T02:53:40.401Z,99741.84
2023-01-13T02:56:10.846Z,99718.78
2023-01-13T02:58:41.867Z,99730.81
2023-01-13T03:01:11.270Z,99735.78
2023-01-13T03:03:39.165Z,99741.44
2023-01-13T03:06:23.211Z,99736.09
2023-01-13T03:08:55.764Z,99735.75
2023-01-13T03:11:26.239Z,99730.78
2023-01-13T03:14:04.641Z,99726.09
2023-01-13T03:16:43.796Z,99726.22
2023-01-13T03:19:24.766Z,99717.44
2023-01-13T03:21:56.842Z,99724.88
2023-01-13T03:24:31.368Z,99726.34
2023-01-13T03:27:05.511Z,99729.59
2023-01-13T03:29:37.334Z,99732.00
2023-01-13T03:32:14.744Z,99729.66
2023-01-13T03:34:47.650Z,99728.91
2023-01-13T03:37:18.019Z,99727.88
2023-01-13T03:39:51.449Z,99725.34
2023-01-13T03:42:23.035Z,99726.56
2023-01-13T03:44:55.982Z,99733.16
2023-01-13T03:47:31.677Z,99737.50
2023-01-13T03:50:05.093Z,99733.84
2023-01-13T03:52:38.057Z,99739.53
2023-01-13T03:55:10.429Z,99735.00
2023-01-13T03:57:47.693Z,99743.53
2023-01-13T04:00:17.156Z,99750.50
2023-01-13T04:02:51.429Z,99754.78
2023-01-13T04:05:19.966Z,99735.75
2023-01-13T04:07:53.906Z,99740.72
2023-01-13T04:10:30.032Z,99741.75
2023-01-13T04:13:02.641Z,99751.06
2023-01-13T04:15:34.788Z,99744.00
2023-01-13T04:18:11.635Z,99750.69
2023-01-13T04:20:39.999Z,99746.56
2023-01-13T04:23:08.818Z,99741.59
2023-01-13T04:25:36.886Z,99743.94
2023-01-13T04:28:05.350Z,99754.53
2023-01-13T04:30:33.422Z,99755.09
2023-01-13T04:33:01.341Z,99744.81
2023-01-13T04:35:30.907Z,99754.88
2023-01-13T04:38:02.763Z,99755.16
2023-01-13T04:40:30.647Z,99755.31
2023-01-13T04:42:58.441Z,99756.34
2023-01-13T04:45:26.364Z,99745.38
2023-01-13T04:47:54.442Z,99732.59
2023-01-13T04:50:22.771Z,99747.94
2023-01-13T04:52:53.060Z,99746.25
2023-01-13T04:55:22.604Z,99756.50
2023-01-13T04:57:50.580Z,99749.75
2023-01-13T05:00:20.861Z,99748.13
2023-01-13T05:02:50.774Z,99751.53
2023-01-13T05:05:19.193Z,99749.91
2023-01-13T05:07:47.421Z,99752.38
2023-01-13T05:10:17.357Z,99743.31
2023-01-13T05:13:03.027Z,99753.22
2023-01-13T05:15:48.599Z,99745.78
2023-01-13T05:18:17.400Z,99749.69
2023-01-13T05:20:45.377Z,99747.78
2023-01-13T05:23:31.101Z,99756.94
2023-01-13T05:26:00.422Z,99749.50
2023-01-13T05:28:33.140Z,99729.88
2023-01-13T05:31:01.774Z,99750.28
2023-01-13T05:33:29.625Z,99748.72
2023-01-13T05:35:57.430Z,99753.59
2023-01-13T05:38:25.225Z,99738.50
2023-01-13T05:41:10.737Z,99755.25
2023-01-13T05:43:40.223Z,99761.47
2023-01-13T05:46:10.237Z,99742.28
2023-01-13T05:48:40.130Z,99756.56
2023-01-13T05:51:09.588Z,99755.59
2023-01-13T05:53:37.813Z,99739.13
2023-01-13T05:56:07.007Z,99755.84
2023-01-13T05:58:35.350Z,99763.38
2023-01-13T06:01:07.192Z,99748.19
2023-01-13T06:03:35.415Z,99746.06
2023-01-13T06:06:03.995Z,99748.69
2023-01-13T06:08:32.756Z,99753.03
2023-01-13T06:11:00.633Z,99744.16
2023-01-13T06:13:28.826Z,99747.84
2023-01-13T06:15:58.706Z,99742.03
2023-01-13T06:18:29.076Z,99739.78
2023-01-13T06:20:57.340Z,99727.78
2023-01-13T06:23:25.623Z,99740.56
2023-01-13T06:26:01.854Z,99740.13
2023-01-13T06:28:29.843Z,99756.78
2023-01-13T06:31:00.866Z,99754.09
2023-01-13T06:33:34.079Z,99738.56
2023-01-13T06:36:08.102Z,99746.78
2023-01-13T06:38:41.407Z,99742.13
2023-01-13T06:41:09.636Z,99740.19
2023-01-13T06:43:38.012Z,99740.81
2023-01-13T06:46:06.233Z,99751.59
2023-01-13T06:48:36.111Z,99753.44
2023-01-13T06:51:04.900Z,99755.16
2023-01-13T06:53:33.058Z,99757.41
2023-01-13T06:56:01.011Z,99758.25
2023-01-13T06:58:29.049Z,99761.75
2023-01-13T07:01:01.271Z,99758.75
2023-01-13T07:03:29.253Z,99745.31
2023-01-13T07:05:58.758Z,99754.41
2023-01-13T07:08:26.675Z,99759.44
2023-01-13T07:10:55.195Z,99759.50
2023-01-13T07:13:40.671Z,99768.31
2023-01-13T07:16:10.180Z,99759.81
2023-01-13T07:18:38.226Z,99771.19
2023-01-13T07:21:09.794Z,99772.47
2023-01-13T07:23:39.479Z,99763.94
2023-01-13T07:26:08.849Z,99760.88
2023-01-13T07:28:37.187Z,99757.03
2023-01-13T07:31:05.181Z,99761.44
2023-01-13T07:33:33.476Z,99749.59
2023-01-13T07:36:03.595Z,99748.03
2023-01-13T07:38:34.003Z,99751.59
2023-01-13T07:41:23.893Z,99754.06
2023-01-13T07:43:51.808Z,99754.19
2023-01-13T07:46:20.144Z,99748.38
2023-01-13T07:48:48.930Z,99756.66
2023-01-13T07:51:17.230Z,99768.66
2023-01-13T07:53:46.568Z,99753.63
2023-01-13T07:56:14.549Z,99770.22
2023-01-13T07:58:42.809Z,99770.44
2023-01-13T08:01:12.177Z,99769.00
2023-01-13T08:03:40.675Z,99764.94
2023-01-13T08:06:09.092Z,99770.22
2023-01-13T08:08:37.632Z,99762.16
2023-01-13T08:11:09.161Z,99770.66
2023-01-13T08:13:37.548Z,99772.44
2023-01-13T08:16:07.987Z,99766.72
2023-01-13T08:18:38.082Z,99769.78
2023-01-13T08:21:07.913Z,99781.72
2023-01-13T08:23:35.883Z,99779.69
2023-01-13T08:26:05.315Z,99785.19
2023-01-13T08:28:34.723Z,99763.00
2023-01-13T08:31:04.484Z,99772.84
2023-01-13T08:33:32.924Z,99769.66
2023-01-13T08:36:04.621Z,99771.78
2023-01-13T08:38:32.602Z,99771.28
2023-01-13T08:41:00.409Z,99777.56
2023-01-13T08:43:28.676Z,99777.97
2023-01-13T08:46:04.655Z,99786.59
2023-01-13T08:48:33.273Z,99784.38
2023-01-13T08:51:06.696Z,99780.47
2023-01-13T08:53:34.868Z,99777.28
2023-01-13T08:56:02.752Z,99770.41
2023-01-13T08:58:30.678Z,99777.06
2023-01-13T09:00:58.761Z,99781.75
2023-01-13T09:03:28.103Z,99786.03
2023-01-13T09:05:56.002Z,99785.31
2023-01-13T09:08:24.574Z,99784.75
2023-01-13T09:10:52.626Z,99776.03
2023-01-13T09:13:21.823Z,99779.69
2023-01-13T09:15:49.755Z,99775.03
2023-01-13T09:18:17.671Z,99769.28
2023-01-13T09:20:46.834Z,99777.72
2023-01-13T09:23:14.723Z,99777.72
2023-01-13T09:25:42.527Z,99786.22
2023-01-13T09:28:10.442Z,99788.03
2023-01-13T09:30:38.806Z,99783.13
2023-01-13T09:33:24.128Z,99770.75
2023-01-13T09:35:53.494Z,99760.56
2023-01-13T09:38:22.429Z,99758.88
2023-01-13T09:40:50.932Z,99765.41
2023-01-13T09:43:40.177Z,99763.84
2023-01-13T09:46:36.508Z,99745.50
2023-01-13T09:49:04.796Z,99719.63
2023-01-13T09:51:41.741Z,99746.44
2023-01-13T09:54:17.258Z,99744.41
2023-01-13T09:56:45.194Z,99728.75
2023-01-13T09:59:13.437Z,99736.41
2023-01-13T10:01:51.763Z,99725.06
2023-01-13T10:04:19.878Z,99731.19
2023-01-13T10:06:52.879Z,99730.53
2023-01-13T10:09:25.266Z,99717.84
2023-01-13T10:12:14.355Z,99713.25
2023-01-13T10:14:45.862Z,99712.16
2023-01-13T10:17:24.950Z,99711.44
2023-01-13T10:19:58.689Z,99705.81
2023-01-13T10:22:45.576Z,99718.44
2023-01-13T10:25:28.979Z,99715.72
2023-01-13T10:28:04.292Z,99720.53
2023-01-13T10:30:39.029Z,99723.56
2023-01-13T10:33:12.511Z,99716.63
2023-01-13T10:35:52.741Z,99727.66
2023-01-13T10:38:25.105Z,99713.41
2023-01-13T10:40:55.249Z,99725.38
2023-01-13T10:43:23.467Z,99706.84
2023-01-13T10:46:00.557Z,99692.97
2023-01-13T10:48:38.592Z,99703.72
2023-01-13T10:51:20.758Z,99697.47
2023-01-13T10:53:58.062Z,99705.78
2023-01-13T10:56:28.948Z,99697.47
2023-01-13T10:59:16.715Z,99698.19
2023-01-13T11:01:57.923Z,99694.22
2023-01-13T11:04:31.491Z,99696.66
2023-01-13T11:07:00.708Z,99681.53
2023-01-13T11:09:31.745Z,99687.09
2023-01-13T11:12:00.299Z,99690.03
2023-01-13T11:14:39.762Z,99682.94
2023-01-13T11:17:27.033Z,99658.50
2023-01-13T11:20:00.444Z,99675.06
2023-01-13T11:22:33.895Z,99665.00
2023-01-13T11:25:05.746Z,99681.75
2023-01-13T11:27:42.399Z,99686.88
2023-01-13T11:30:21.868Z,99678.41
2023-01-13T11:33:01.981Z,99645.53
2023-01-13T11:35:32.466Z,99667.84
2023-01-13T11:38:07.535Z,99663.81
2023-01-13T11:40:42.190Z,99667.53
2023-01-13T11:43:18.578Z,99654.94
2023-01-13T11:45:51.566Z,99661.50
2023-01-13T11:48:23.769Z,99677.34
2023-01-13T11:50:59.266Z,99675.66
2023-01-13T11:53:48.190Z,99666.75
2023-01-13T11:56:39.011Z,99658.31
2023-01-13T11:59:26.063Z,99658.09
2023-01-13T12:02:05.019Z,99649.72
2023-01-13T12:04:42.140Z,99622.28
2023-01-13T12:07:18.403Z,99624.41
2023-01-13T12:10:03.398Z,99645.41
2023-01-13T12:12:47.426Z,99633.09
2023-01-13T12:15:57.191Z,99625.56
2023-01-13T12:18:50.730Z,99621.84
2023-01-13T12:21:23.854Z,99620.13
2023-01-13T12:24:01.265Z,99609.66
2023-01-13T12:26:33.733Z,99594.84
2023-01-13T12:29:07.596Z,99589.97
2023-01-13T12:31:38.282Z,99577.66
2023-01-13T12:34:23.529Z,99591.09
2023-01-13T12:37:02.739Z,99578.75
2023-01-13T12:39:43.964Z,99593.94
2023-01-13T12:42:36.759Z,99603.78
2023-01-13T12:45:22.794Z,99583.63
2023-01-13T12:47:50.769Z,99583.16
2023-01-13T12:50:40.749Z,99581.22
2023-01-13T12:53:32.500Z,99585.88
2023-01-13T12:56:36.753Z,99573.69
2023-01-13T12:59:48.895Z,99585.19
2023-01-13T13:02:35.919Z,99590.56
2023-01-13T13:05:39.480Z,99599.00
2023-01-13T13:08:16.094Z,99600.47
2023-01-13T13:10:56.394Z,99609.75
2023-01-13T13:13:42.746Z,99594.69
2023-01-13T13:16:40.444Z,99590.88
2023-01-13T13:19:44.989Z,99600.44
2023-01-13T13:22:43.939Z,99607.72
2023-01-13T13:25:22.815Z,99608.50
2023-01-13T13:28:03.042Z,99611.81
2023-01-13T13:30:34.900Z,99608.31
2023-01-13T13:33:16.539Z,99601.75
2023-01-13T13:36:05.889Z,99608.31
2023-01-13T13:39:08.584Z,99617.41
2023-01-13T13:41:55.341Z,99628.06
2023-01-13T13:44:58.388Z,99603.09
2023-01-13T13:47:26.332Z,99627.34
2023-01-13T13:49:55.486Z,99628.75
2023-01-13T13:52:32.566Z,99620.28
2023-01-13T13:55:08.813Z,99617.00
2023-01-13T13:57:42.441Z,99603.66
2023-01-13T14:00:22.937Z,99623.69
2023-01-13T14:02:53.143Z,99625.13
2023-01-13T14:05:23.917Z,99628.28
2023-01-13T14:08:00.799Z,99636.41
2023-01-13T14:10:35.813Z,99631.44
2023-01-13T14:13:15.307Z,99653.91
2023-01-13T14:15:43.449Z,99655.53
2023-01-13T14:18:14.424Z,99648.78
2023-01-13T14:20:42.906Z,99645.09
2023-01-13T14:23:17.949Z,99660.28
2023-01-13T14:25:48.916Z,99658.69
2023-01-13T14:28:25.121Z,99656.19
2023-01-13T14:30:54.184Z,99658.00
2023-01-13T14:33:35.256Z,99644.06
2023-01-13T14:36:15.569Z,99658.50
2023-01-13T14:38:46.134Z,99658.72
2023-01-13T14:41:26.475Z,99658.59
2023-01-13T14:43:58.408Z,99663.31
2023-01-13T14:46:36.866Z,99681.56
2023-01-13T14:49:04.793Z,99674.22
2023-01-13T14:51:32.958Z,99686.69
2023-01-13T14:54:02.486Z,99676.81
2023-01-13T14:56:47.260Z,99683.16
2023-01-13T14:59:43.392Z,99680.34
2023-01-13T15:02:48.005Z,99678.78
2023-01-13T15:05:47.428Z,99681.31
2023-01-13T15:08:40.723Z,99694.69
2023-01-13T15:11:21.929Z,99682.75
2023-01-13T15:13:56.730Z,99685.69
2023-01-13T15:16:25.986Z,99688.69
2023-01-13T15:18:54.794Z,99696.34
2023-01-13T15:21:23.248Z,99697.34
2023-01-13T15:23:51.287Z,99694.91
2023-01-13T15:26:23.700Z,99691.50
2023-01-13T15:28:53.045Z,99700.47
2023-01-13T15:31:21.728Z,99698.91
2023-01-13T15:33:50.331Z,99693.81
2023-01-13T15:36:29.802Z,99700.97
2023-01-13T15:38:59.172Z,99667.47
2023-01-13T15:41:46.183Z,99706.19
2023-01-13T15:44:35.881Z,99703.63
2023-01-13T15:47:07.572Z,99704.66
2023-01-13T15:49:40.201Z,99705.25
2023-01-13T15:52:19.959Z,99711.75
2023-01-13T15:54:48.097Z,99710.72
2023-01-13T15:57:23.159Z,99696.59
2023-01-13T15:59:52.714Z,99708.72
2023-01-13T16:02:22.497Z,99713.69
2023-01-13T16:04:51.221Z,99723.78
2023-01-13T16:07:20.128Z,99725.41
2023-01-13T16:09:48.229Z,99728.75
2023-01-13T16:12:16.186Z,99732.03
2023-01-13T16:14:45.470Z,99707.38
2023-01-13T16:17:17.627Z,99735.56
2023-01-13T16:19:45.973Z,99738.22
2023-01-13T16:22:14.473Z,99733.38
2023-01-13T16:24:43.202Z,99731.66
2023-01-13T16:27:16.153Z,99736.66
2023-01-13T16:29:46.554Z,99718.81
2023-01-13T16:32:15.126Z,99729.94
2023-01-13T16:34:43.528Z,99739.06
2023-01-13T16:37:20.725Z,99728.31
2023-01-13T16:39:49.310Z,99711.22
2023-01-13T16:42:17.148Z,99732.41
2023-01-13T16:44:48.277Z,99725.75
2023-01-13T16:47:17.679Z,99719.06
2023-01-13T16:49:45.995Z,99712.38
2023-01-13T16:52:13.961Z,99714.94
2023-01-13T16:54:41.894Z,99722.56
2023-01-13T16:57:13.287Z,99727.59
2023-01-13T16:59:41.256Z,99713.47
2023-01-13T17:02:15.224Z,99695.03
2023-01-13T17:04:43.964Z,99689.94
2023-01-13T17:07:16.638Z,99699.03
2023-01-13T17:09:44.566Z,99690.72
2023-01-13T17:12:12.699Z,99677.31
2023-01-13T17:14:43.199Z,99678.94
2023-01-13T17:17:21.658Z,99650.00
2023-01-13T17:19:49.683Z,99704.41
2023-01-13T17:22:17.685Z,99706.28
2023-01-13T17:24:46.114Z,99706.47
2023-01-13T17:27:17.285Z,99715.31
2023-01-13T17:29:45.337Z,99716.09
2023-01-13T17:32:17.675Z,99718.47
2023-01-13T17:34:46.110Z,99718.06
2023-01-13T17:37:14.822Z,99719.34
2023-01-13T17:39:44.255Z,99715.06
2023-01-13T17:42:12.509Z,99722.50
2023-01-13T17:44:40.574Z,99727.47
2023-01-13T17:47:08.541Z,99724.78
2023-01-13T17:49:37.745Z,99736.34
2023-01-13T17:52:06.537Z,99734.72
2023-01-13T17:54:34.368Z,99740.84
2023-01-13T17:57:02.221Z,99741.97
2023-01-13T17:59:30.124Z,99752.97
2023-01-13T18:01:58.170Z,99756.41
2023-01-13T18:04:28.071Z,99758.09
2023-01-13T18:06:57.800Z,99750.63
2023-01-13T18:09:26.235Z,99754.81
2023-01-13T18:11:54.111Z,99762.34
2023-01-13T18:14:22.451Z,99775.56
2023-01-13T18:16:50.504Z,99779.53
2023-01-13T18:19:35.831Z,99758.25
2023-01-13T18:22:22.525Z,99783.59
2023-01-13T18:25:08.060Z,99787.78
2023-01-13T18:27:38.551Z,99779.69
2023-01-13T18:30:07.570Z,99782.47
2023-01-13T18:32:35.768Z,99781.06
2023-01-13T18:35:07.297Z,99790.28
2023-01-13T18:37:38.703Z,99801.00
2023-01-13T18:40:09.232Z,99797.53
2023-01-13T18:42:53.634Z,99820.75
2023-01-13T18:45:24.209Z,99811.66
2023-01-13T18:47:53.095Z,99793.69
2023-01-13T18:50:21.617Z,99784.38
2023-01-13T18:52:50.885Z,99785.44
2023-01-13T18:55:18.971Z,99780.47
2023-01-13T18:57:47.400Z,99759.81
2023-01-13T19:00:19.055Z,99739.91
2023-01-13T19:02:48.241Z,99750.66
2023-01-13T19:05:16.198Z,99734.75
2023-01-13T19:07:50.248Z,99748.41
2023-01-13T19:10:20.255Z,99766.84
2023-01-13T19:12:48.213Z,99771.41
2023-01-13T19:15:16.960Z,99774.09
2023-01-13T19:17:45.606Z,99774.78
2023-01-13T19:20:13.698Z,99786.84
2023-01-13T19:22:41.654Z,99776.28
2023-01-13T19:25:09.634Z,99760.00
2023-01-13T19:27:39.831Z,99762.31
2023-01-13T19:30:09.225Z,99755.75
2023-01-13T19:32:37.152Z,99761.44
2023-01-13T19:35:05.614Z,99771.47
2023-01-13T19:37:34.181Z,99770.66
2023-01-13T19:40:04.629Z,99773.19
2023-01-13T19:42:49.940Z,99764.69
2023-01-13T19:45:28.201Z,99775.13
2023-01-13T19:47:56.222Z,99772.16
2023-01-13T19:50:24.151Z,99788.41
2023-01-13T19:52:52.136Z,99793.38
2023-01-13T19:55:20.411Z,99785.00
2023-01-13T19:57:48.401Z,99784.22
2023-01-13T20:00:20.777Z,99804.84
2023-01-13T20:02:51.881Z,99813.06
2023-01-13T20:05:25.667Z,99830.22
2023-01-13T20:07:54.050Z,99840.75
2023-01-13T20:10:23.740Z,99841.34
2023-01-13T20:12:51.810Z,99874.38
2023-01-13T20:15:19.781Z,99923.53
2023-01-13T20:17:47.706Z,99942.94
2023-01-13T20:20:18.550Z,99943.41
2023-01-13T20:22:46.556Z,99933.66
2023-01-13T20:25:16.937Z,99936.69
2023-01-13T20:27:45.365Z,99911.59
2023-01-13T20:30:14.532Z,99916.41
2023-01-13T20:32:42.967Z,99925.88
2023-01-13T20:35:11.952Z,99925.25
2023-01-13T20:37:42.434Z,99914.53
2023-01-13T20:40:14.284Z,99917.22
2023-01-13T20:42:44.673Z,99921.66
2023-01-13T20:45:17.319Z,99930.94
2023-01-13T20:47:46.366Z,99908.31
2023-01-13T20:50:14.544Z,99928.03
2023-01-13T20:52:44.185Z,99924.00
2023-01-13T20:55:12.573Z,99909.03
2023-01-13T20:57:41.024Z,99905.59
2023-01-13T21:00:11.203Z,99908.16
2023-01-13T21:02:41.101Z,99917.41
2023-01-13T21:05:09.571Z,99910.88
2023-01-13T21:07:37.442Z,99910.09
2023-01-13T21:10:07.173Z,99911.81
2023-01-13T21:12:52.732Z,99916.00
2023-01-13T21:15:21.836Z,99911.81
2023-01-13T21:18:09.108Z,99916.84
2023-01-13T21:20:38.679Z,99915.78
2023-01-13T21:23:07.649Z,99923.44
2023-01-13T21:25:39.677Z,99915.69
2023-01-13T21:28:10.952Z,99897.94
2023-01-13T21:30:39.201Z,99913.56
2023-01-13T21:33:07.211Z,99923.31
2023-01-13T21:35:38.728Z,99926.56
2023-01-13T21:38:06.709Z,99926.72
2023-01-13T21:40:35.939Z,99927.50
2023-01-13T21:43:21.188Z,99935.50
2023-01-13T21:46:06.682Z,99935.16
2023-01-13T21:48:34.565Z,99940.03
2023-01-13T21:51:02.482Z,99934.13
2023-01-13T21:53:30.391Z,99934.69
2023-01-13T21:55:59.628Z,99928.00
2023-01-13T21:58:27.553Z,99929.44
2023-01-13T22:00:55.585Z,99925.25
2023-01-13T22:03:23.670Z,99925.34
2023-01-13T22:05:55.563Z,99925.41
2023-01-13T22:08:23.788Z,99923.72
2023-01-13T22:10:57.584Z,99920.38
2023-01-13T22:13:47.521Z,99922.31
2023-01-13T22:16:16.259Z,99919.75
2023-01-13T22:18:44.117Z,99926.41
2023-01-13T22:21:11.997Z,99925.56
2023-01-13T22:23:39.832Z,99921.31
2023-01-13T22:26:09.006Z,99924.56
2023-01-13T22:28:42.938Z,99915.38
2023-01-13T22:31:12.241Z,99919.47
2023-01-13T22:33:41.007Z,99917.06
2023-01-13T22:36:09.986Z,99922.31
2023-01-13T22:38:38.036Z,99926.50
2023-01-13T22:41:08.176Z,99923.09
2023-01-13T22:43:38.563Z,99909.38
2023-01-13T22:46:08.631Z,99919.66
2023-01-13T22:48:37.160Z,99924.78
2023-01-13T22:51:06.543Z,99912.84
2023-01-13T22:53:34.503Z,99919.50
2023-01-13T22:56:02.407Z,99921.38
2023-01-13T22:58:30.634Z,99924.72
2023-01-13T23:01:10.681Z,99919.50
2023-01-13T23:03:38.751Z,99920.28
2023-01-13T23:06:07.186Z,99927.59
2023-01-13T23:08:35.526Z,99924.19
2023-01-13T23:11:04.392Z,99939.25
2023-01-13T23:13:32.554Z,99941.56
2023-01-13T23:16:03.869Z,99943.13
2023-01-13T23:18:33.670Z,99930.22
2023-01-13T23:21:05.020Z,99938.84
2023-01-13T23:23:34.317Z,99942.03
2023-01-13T23:26:02.895Z,99931.78
2023-01-13T23:28:31.269Z,99932.72
2023-01-13T23:30:59.221Z,99936.28
2023-01-13T23:33:27.299Z,99944.66
2023-01-13T23:36:01.148Z,99941.69
2023-01-13T23:38:29.569Z,99952.88
2023-01-13T23:40:57.745Z,99944.97
2023-01-13T23:43:26.787Z,99941.06
2023-01-13T23:46:03.268Z,99929.44
2023-01-13T23:48:32.731Z,99928.81
2023-01-13T23:51:03.937Z,99940.03
2023-01-13T23:53:33.575Z,99948.25
2023-01-13T23:56:02.248Z,99931.47
2023-01-13T23:58:31.106Z,99941.88
